sensor_id;sensor_type;location;lat;lon;timestamp;pressure;altitude;pressure_sealevel;temperature;humidity
63190;BME280;49286;44.460;26.114;2023-12-20T00:00:58;100980.44;;;3.12;100.00
63190;BME280;49286;44.460;26.114;2023-12-20T00:03:24;100892.13;;;2.64;100.00
63190;BME280;49286;44.460;26.114;2023-12-20T00:05:51;100935.09;;;2.80;100.00
63190;BME280;49286;44.460;26.114;2023-12-20T00:08:17;100970.94;;;3.12;100.00
63190;BME280;49286;44.460;26.114;2023-12-20T00:10:45;100940.31;;;3.02;100.00
63190;BME280;49286;44.460;26.114;2023-12-20T00:13:11;100963.81;;;3.07;100.00
63190;BME280;49286;44.460;26.114;2023-12-20T00:15:36;100852.53;;;2.45;100.00
63190;BME280;49286;44.460;26.114;2023-12-20T00:18:02;100937.16;;;2.88;100.00
63190;BME280;49286;44.460;26.114;2023-12-20T00:20:28;100961.28;;;2.87;100.00
63190;BME280;49286;44.460;26.114;2023-12-20T00:22:56;100956.25;;;2.90;100.00
63190;BME280;49286;44.460;26.114;2023-12-20T00:25:23;100863.25;;;2.32;100.00
63190;BME280;49286;44.460;26.114;2023-12-20T00:27:48;100922.97;;;2.79;100.00
63190;BME280;49286;44.460;26.114;2023-12-20T00:30:14;100890.19;;;2.58;100.00
63190;BME280;49286;44.460;26.114;2023-12-20T00:32:39;100886.53;;;2.53;100.00
63190;BME280;49286;44.460;26.114;2023-12-20T00:35:12;100949.16;;;2.86;100.00
63190;BME280;49286;44.460;26.114;2023-12-20T00:37:37;100923.28;;;2.65;100.00
63190;BME280;49286;44.460;26.114;2023-12-20T00:40:03;100919.13;;;2.48;100.00
63190;BME280;49286;44.460;26.114;2023-12-20T00:42:29;100830.88;;;2.00;100.00
63190;BME280;49286;44.460;26.114;2023-12-20T00:44:54;100856.53;;;2.37;100.00
63190;BME280;49286;44.460;26.114;2023-12-20T00:47:20;100911.31;;;2.69;100.00
63190;BME280;49286;44.460;26.114;2023-12-20T00:49:45;100789.19;;;1.94;100.00
63190;BME280;49286;44.460;26.114;2023-12-20T00:52:11;100818.69;;;2.18;100.00
63190;BME280;49286;44.460;26.114;2023-12-20T00:54:37;100843.63;;;2.16;100.00
63190;BME280;49286;44.460;26.114;2023-12-20T00:57:03;100878.31;;;2.42;100.00
63190;BME280;49286;44.460;26.114;2023-12-20T00:59:29;100810.94;;;2.20;100.00
63190;BME280;49286;44.460;26.114;2023-12-20T01:01:54;100863.25;;;2.32;100.00
63190;BME280;49286;44.460;26.114;2023-12-20T01:04:20;100829.16;;;2.00;100.00
63190;BME280;49286;44.460;26.114;2023-12-20T01:06:45;100923.38;;;2.46;100.00
63190;BME280;49286;44.460;26.114;2023-12-20T01:09:11;100795.97;;;1.90;100.00
63190;BME280;49286;44.460;26.114;2023-12-20T01:11:36;100866.50;;;2.49;100.00
63190;BME280;49286;44.460;26.114;2023-12-20T01:14:02;100869.78;;;2.45;100.00
63190;BME280;49286;44.460;26.114;2023-12-20T01:16:27;100813.06;;;2.07;100.00
63190;BME280;49286;44.460;26.114;2023-12-20T01:18:53;100828.69;;;2.10;100.00
63190;BME280;49286;44.460;26.114;2023-12-20T01:21:18;100880.22;;;2.46;100.00
63190;BME280;49286;44.460;26.114;2023-12-20T01:23:44;100897.78;;;2.32;100.00
63190;BME280;49286;44.460;26.114;2023-12-20T01:26:09;100848.63;;;2.34;100.00
63190;BME280;49286;44.460;26.114;2023-12-20T01:28:35;100778.22;;;1.99;100.00
63190;BME280;49286;44.460;26.114;2023-12-20T01:31:00;100860.81;;;2.58;100.00
63190;BME280;49286;44.460;26.114;2023-12-20T01:33:26;100678.81;;;1.51;100.00
63190;BME280;49286;44.460;26.114;2023-12-20T01:35:51;100711.03;;;1.59;100.00
63190;BME280;49286;44.460;26.114;2023-12-20T01:38:17;100850.53;;;2.38;100.00
63190;BME280;49286;44.460;26.114;2023-12-20T01:40:44;100863.44;;;2.37;100.00
63190;BME280;49286;44.460;26.114;2023-12-20T01:43:10;100853.06;;;2.37;100.00
63190;BME280;49286;44.460;26.114;2023-12-20T01:45:37;100866.41;;;2.46;100.00
63190;BME280;49286;44.460;26.114;2023-12-20T01:48:05;100842.94;;;2.43;100.00
63190;BME280;49286;44.460;26.114;2023-12-20T01:50:31;100767.81;;;1.98;100.00
63190;BME280;49286;44.460;26.114;2023-12-20T01:52:59;100745.91;;;1.89;100.00
63190;BME280;49286;44.460;26.114;2023-12-20T01:55:27;100869.13;;;2.50;100.00
63190;BME280;49286;44.460;26.114;2023-12-20T01:57:55;100849.84;;;2.42;100.00
63190;BME280;49286;44.460;26.114;2023-12-20T02:00:22;100838.59;;;2.42;100.00
63190;BME280;49286;44.460;26.114;2023-12-20T02:02:53;100748.16;;;2.03;100.00
63190;BME280;49286;44.460;26.114;2023-12-20T02:05:20;100753.13;;;1.97;100.00
63190;BME280;49286;44.460;26.114;2023-12-20T02:07:46;100742.38;;;1.87;100.00
63190;BME280;49286;44.460;26.114;2023-12-20T02:10:13;100840.53;;;2.47;100.00
63190;BME280;49286;44.460;26.114;2023-12-20T02:12:40;100841.91;;;2.60;100.00
63190;BME280;49286;44.460;26.114;2023-12-20T02:15:06;100803.50;;;2.50;100.00
63190;BME280;49286;44.460;26.114;2023-12-20T02:17:33;100773.09;;;2.44;100.00
63190;BME280;49286;44.460;26.114;2023-12-20T02:19:59;100736.72;;;2.19;100.00
63190;BME280;49286;44.460;26.114;2023-12-20T02:22:24;100719.00;;;2.07;100.00
63190;BME280;49286;44.460;26.114;2023-12-20T02:24:50;100719.00;;;2.07;100.00
63190;BME280;49286;44.460;26.114;2023-12-20T02:27:17;100700.63;;;2.01;100.00
63190;BME280;49286;44.460;26.114;2023-12-20T02:29:43;100794.16;;;2.53;100.00
63190;BME280;49286;44.460;26.114;2023-12-20T02:32:09;100811.25;;;2.48;100.00
63190;BME280;49286;44.460;26.114;2023-12-20T02:34:35;100804.16;;;2.44;100.00
63190;BME280;49286;44.460;26.114;2023-12-20T02:37:01;100674.28;;;1.88;100.00
63190;BME280;49286;44.460;26.114;2023-12-20T02:39:30;100715.00;;;2.15;100.00
63190;BME280;49286;44.460;26.114;2023-12-20T02:41:57;100666.41;;;1.85;100.00
63190;BME280;49286;44.460;26.114;2023-12-20T02:44:22;100671.00;;;1.93;100.00
63190;BME280;49286;44.460;26.114;2023-12-20T02:46:48;100692.75;;;1.98;100.00
63190;BME280;49286;44.460;26.114;2023-12-20T02:49:13;100664.88;;;1.90;100.00
63190;BME280;49286;44.460;26.114;2023-12-20T02:51:39;100759.75;;;1.90;100.00
63190;BME280;49286;44.460;26.114;2023-12-20T02:54:04;100673.47;;;1.68;100.00
63190;BME280;49286;44.460;26.114;2023-12-20T02:56:35;100754.72;;;2.38;100.00
63190;BME280;49286;44.460;26.114;2023-12-20T02:59:01;100735.47;;;2.31;100.00
63190;BME280;49286;44.460;26.114;2023-12-20T03:01:27;100753.25;;;2.45;100.00
63190;BME280;49286;44.460;26.114;2023-12-20T03:03:53;100760.34;;;2.50;100.00
63190;BME280;49286;44.460;26.114;2023-12-20T03:06:18;100728.78;;;2.37;100.00
63190;BME280;49286;44.460;26.114;2023-12-20T03:08:44;100656.88;;;2.07;100.00
63190;BME280;49286;44.460;26.114;2023-12-20T03:11:11;100721.41;;;2.47;100.00
63190;BME280;49286;44.460;26.114;2023-12-20T03:13:37;100715.94;;;2.40;100.00
63190;BME280;49286;44.460;26.114;2023-12-20T03:16:12;100615.63;;;1.87;100.00
63190;BME280;49286;44.460;26.114;2023-12-20T03:18:38;100711.31;;;2.55;100.00
63190;BME280;49286;44.460;26.114;2023-12-20T03:21:05;100663.09;;;2.35;100.00
63190;BME280;49286;44.460;26.114;2023-12-20T03:23:31;100721.50;;;2.50;100.00
63190;BME280;49286;44.460;26.114;2023-12-20T03:25:58;100611.78;;;2.00;100.00
63190;BME280;49286;44.460;26.114;2023-12-20T03:28:24;100688.78;;;2.52;100.00
63190;BME280;49286;44.460;26.114;2023-12-20T03:30:50;100682.44;;;2.44;100.00
63190;BME280;49286;44.460;26.114;2023-12-20T03:33:15;100681.84;;;2.51;100.00
63190;BME280;49286;44.460;26.114;2023-12-20T03:35:41;100617.38;;;2.11;100.00
63190;BME280;49286;44.460;26.114;2023-12-20T03:38:07;100604.78;;;1.98;100.00
63190;BME280;49286;44.460;26.114;2023-12-20T03:40:33;100570.75;;;1.64;100.00
63190;BME280;49286;44.460;26.114;2023-12-20T03:42:59;100588.44;;;1.76;100.00
63190;BME280;49286;44.460;26.114;2023-12-20T03:45:24;100691.38;;;2.52;100.00
63190;BME280;49286;44.460;26.114;2023-12-20T03:47:50;100662.28;;;2.36;100.00
63190;BME280;49286;44.460;26.114;2023-12-20T03:50:22;100579.56;;;1.92;100.00
63190;BME280;49286;44.460;26.114;2023-12-20T03:52:48;100575.47;;;1.99;100.00
63190;BME280;49286;44.460;26.114;2023-12-20T03:55:13;100555.94;;;1.83;100.00
63190;BME280;49286;44.460;26.114;2023-12-20T03:57:39;100671.47;;;2.27;100.00
63190;BME280;49286;44.460;26.114;2023-12-20T04:00:06;100585.22;;;1.59;100.00
63190;BME280;49286;44.460;26.114;2023-12-20T04:02:36;100653.19;;;2.23;100.00
63190;BME280;49286;44.460;26.114;2023-12-20T04:05:02;100569.84;;;1.86;100.00
63190;BME280;49286;44.460;26.114;2023-12-20T04:07:27;100665.69;;;2.35;100.00
63190;BME280;49286;44.460;26.114;2023-12-20T04:09:53;100680.75;;;2.45;100.00
63190;BME280;49286;44.460;26.114;2023-12-20T04:12:18;100596.53;;;2.08;100.00
63190;BME280;49286;44.460;26.114;2023-12-20T04:14:44;100654.34;;;2.55;100.00
63190;BME280;49286;44.460;26.114;2023-12-20T04:17:09;100658.88;;;2.61;100.00
63190;BME280;49286;44.460;26.114;2023-12-20T04:19:35;100672.53;;;2.32;100.00
63190;BME280;49286;44.460;26.114;2023-12-20T04:22:00;100579.31;;;1.86;100.00
63190;BME280;49286;44.460;26.114;2023-12-20T04:24:26;100584.31;;;2.04;100.00
63190;BME280;49286;44.460;26.114;2023-12-20T04:26:51;100624.09;;;2.30;100.00
63190;BME280;49286;44.460;26.114;2023-12-20T04:29:17;100576.66;;;2.07;100.00
63190;BME280;49286;44.460;26.114;2023-12-20T04:31:44;100533.13;;;1.73;100.00
63190;BME280;49286;44.460;26.114;2023-12-20T04:34:09;100544.38;;;1.97;100.00
63190;BME280;49286;44.460;26.114;2023-12-20T04:36:35;100544.09;;;1.89;100.00
63190;BME280;49286;44.460;26.114;2023-12-20T04:39:01;100437.72;;;1.11;100.00
63190;BME280;49286;44.460;26.114;2023-12-20T04:41:26;100633.97;;;2.18;100.00
63190;BME280;49286;44.460;26.114;2023-12-20T04:43:53;100572.78;;;1.96;100.00
63190;BME280;49286;44.460;26.114;2023-12-20T04:46:18;100519.38;;;1.74;100.00
63190;BME280;49286;44.460;26.114;2023-12-20T04:48:44;100599.59;;;2.20;100.00
63190;BME280;49286;44.460;26.114;2023-12-20T04:51:09;100552.69;;;1.88;100.00
63190;BME280;49286;44.460;26.114;2023-12-20T04:53:35;100612.13;;;2.33;100.00
63190;BME280;49286;44.460;26.114;2023-12-20T04:56:00;100528.13;;;1.77;100.00
63190;BME280;49286;44.460;26.114;2023-12-20T04:58:26;100628.69;;;2.37;100.00
63190;BME280;49286;44.460;26.114;2023-12-20T05:00:52;100609.53;;;2.33;100.00
63190;BME280;49286;44.460;26.114;2023-12-20T05:03:17;100590.53;;;2.33;100.00
63190;BME280;49286;44.460;26.114;2023-12-20T05:05:43;100583.44;;;2.27;100.00
63190;BME280;49286;44.460;26.114;2023-12-20T05:08:08;100498.19;;;1.84;100.00
63190;BME280;49286;44.460;26.114;2023-12-20T05:10:34;100560.41;;;2.11;100.00
63190;BME280;49286;44.460;26.114;2023-12-20T05:13:00;100492.84;;;1.79;100.00
63190;BME280;49286;44.460;26.114;2023-12-20T05:15:25;100551.53;;;2.04;100.00
63190;BME280;49286;44.460;26.114;2023-12-20T05:17:51;100593.06;;;2.31;100.00
63190;BME280;49286;44.460;26.114;2023-12-20T05:20:16;100497.84;;;1.75;100.00
63190;BME280;49286;44.460;26.114;2023-12-20T05:22:42;100560.59;;;2.16;100.00
63190;BME280;49286;44.460;26.114;2023-12-20T05:25:07;100585.38;;;2.33;100.00
63190;BME280;49286;44.460;26.114;2023-12-20T05:27:33;100584.84;;;2.19;100.00
63190;BME280;49286;44.460;26.114;2023-12-20T05:29:58;100587.56;;;2.22;100.00
63190;BME280;49286;44.460;26.114;2023-12-20T05:32:24;100559.66;;;2.14;100.00
63190;BME280;49286;44.460;26.114;2023-12-20T05:34:50;100574.13;;;2.08;100.00
63190;BME280;49286;44.460;26.114;2023-12-20T05:37:15;100588.16;;;2.15;100.00
63190;BME280;49286;44.460;26.114;2023-12-20T05:39:41;100555.59;;;1.98;100.00
63190;BME280;49286;44.460;26.114;2023-12-20T05:42:06;100470.34;;;1.54;100.00
63190;BME280;49286;44.460;26.114;2023-12-20T05:44:32;100580.38;;;2.15;100.00
63190;BME280;49286;44.460;26.114;2023-12-20T05:46:59;100549.06;;;2.07;100.00
63190;BME280;49286;44.460;26.114;2023-12-20T05:49:24;100560.88;;;2.01;100.00
63190;BME280;49286;44.460;26.114;2023-12-20T05:51:50;100574.13;;;2.08;100.00
63190;BME280;49286;44.460;26.114;2023-12-20T05:54:16;100412.53;;;1.05;100.00
63190;BME280;49286;44.460;26.114;2023-12-20T05:56:41;100480.06;;;1.37;100.00
63190;BME280;49286;44.460;26.114;2023-12-20T05:59:07;100597.44;;;2.08;100.00
63190;BME280;49286;44.460;26.114;2023-12-20T06:01:33;100480.94;;;1.38;100.00
63190;BME280;49286;44.460;26.114;2023-12-20T06:03:58;100413.03;;;1.19;100.00
63190;BME280;49286;44.460;26.114;2023-12-20T06:06:24;100577.69;;;2.12;100.00
63190;BME280;49286;44.460;26.114;2023-12-20T06:08:49;100504.50;;;1.68;100.00
63190;BME280;49286;44.460;26.114;2023-12-20T06:11:15;100584.06;;;2.20;100.00
63190;BME280;49286;44.460;26.114;2023-12-20T06:13:41;100468.44;;;1.48;100.00
63190;BME280;49286;44.460;26.114;2023-12-20T06:16:06;100578.53;;;2.11;100.00
63190;BME280;49286;44.460;26.114;2023-12-20T06:18:35;100483.41;;;1.57;100.00
63190;BME280;49286;44.460;26.114;2023-12-20T06:21:02;100532.31;;;1.98;100.00
63190;BME280;49286;44.460;26.114;2023-12-20T06:23:27;100482.38;;;1.76;100.00
63190;BME280;49286;44.460;26.114;2023-12-20T06:25:53;100536.97;;;2.06;100.00
63190;BME280;49286;44.460;26.114;2023-12-20T06:28:19;100563.50;;;2.25;100.00
63190;BME280;49286;44.460;26.114;2023-12-20T06:30:44;100569.22;;;2.40;100.00
63190;BME280;49286;44.460;26.114;2023-12-20T06:33:11;100562.38;;;2.42;100.00
63190;BME280;49286;44.460;26.114;2023-12-20T06:35:36;100538.91;;;2.38;100.00
63190;BME280;49286;44.460;26.114;2023-12-20T06:38:03;100529.34;;;2.35;100.00
63190;BME280;49286;44.460;26.114;2023-12-20T06:40:30;100490.13;;;2.24;100.00
63190;BME280;49286;44.460;26.114;2023-12-20T06:42:55;100482.50;;;2.29;100.00
63190;BME280;49286;44.460;26.114;2023-12-20T06:45:21;100550.88;;;2.60;100.00
63190;BME280;49286;44.460;26.114;2023-12-20T06:47:46;100475.53;;;2.26;100.00
63190;BME280;49286;44.460;26.114;2023-12-20T06:50:12;100524.03;;;2.56;100.00
63190;BME280;49286;44.460;26.114;2023-12-20T06:52:38;100435.88;;;2.02;100.00
63190;BME280;49286;44.460;26.114;2023-12-20T06:55:04;100355.47;;;1.72;100.00
63190;BME280;49286;44.460;26.114;2023-12-20T06:57:29;100423.88;;;2.04;100.00
63190;BME280;49286;44.460;26.114;2023-12-20T06:59:55;100494.50;;;2.51;100.00
63190;BME280;49286;44.460;26.114;2023-12-20T07:02:21;100490.56;;;2.62;100.00
63190;BME280;49286;44.460;26.114;2023-12-20T07:04:47;100490.41;;;2.58;100.00
63190;BME280;49286;44.460;26.114;2023-12-20T07:07:13;100402.16;;;2.26;100.00
63190;BME280;49286;44.460;26.114;2023-12-20T07:09:38;100323.66;;;1.74;100.00
63190;BME280;49286;44.460;26.114;2023-12-20T07:12:07;100484.22;;;2.80;100.00
63190;BME280;49286;44.460;26.114;2023-12-20T07:14:33;100459.50;;;2.64;100.00
63190;BME280;49286;44.460;26.114;2023-12-20T07:16:59;100415.78;;;2.46;100.00
63190;BME280;49286;44.460;26.114;2023-12-20T07:19:24;100407.81;;;2.40;100.00
63190;BME280;49286;44.460;26.114;2023-12-20T07:21:50;100452.25;;;2.79;100.00
63190;BME280;49286;44.460;26.114;2023-12-20T07:24:15;100498.22;;;3.12;100.00
63190;BME280;49286;44.460;26.114;2023-12-20T07:26:41;100402.44;;;2.61;100.00
63190;BME280;49286;44.460;26.114;2023-12-20T07:29:06;100396.91;;;2.50;100.00
63190;BME280;49286;44.460;26.114;2023-12-20T07:31:32;100367.69;;;2.54;100.00
63190;BME280;49286;44.460;26.114;2023-12-20T07:33:58;100470.63;;;3.14;100.00
63190;BME280;49286;44.460;26.114;2023-12-20T07:36:23;100357.41;;;2.57;100.00
63190;BME280;49286;44.460;26.114;2023-12-20T07:38:49;100443.47;;;3.03;100.00
63190;BME280;49286;44.460;26.114;2023-12-20T07:41:14;100389.44;;;2.59;100.00
63190;BME280;49286;44.460;26.114;2023-12-20T07:43:41;100257.16;;;1.97;100.00
63190;BME280;49286;44.460;26.114;2023-12-20T07:46:08;100428.50;;;3.21;100.00
63190;BME280;49286;44.460;26.114;2023-12-20T07:48:37;100276.75;;;2.45;100.00
63190;BME280;49286;44.460;26.114;2023-12-20T07:51:04;100266.03;;;2.32;100.00
63190;BME280;49286;44.460;26.114;2023-12-20T07:53:33;100442.16;;;3.46;100.00
63190;BME280;49286;44.460;26.114;2023-12-20T07:55:58;100333.78;;;3.04;100.00
63190;BME280;49286;44.460;26.114;2023-12-20T07:58:24;100428.09;;;3.37;100.00
63190;BME280;49286;44.460;26.114;2023-12-20T08:00:49;100432.84;;;3.52;100.00
63190;BME280;49286;44.460;26.114;2023-12-20T08:03:15;100302.41;;;2.94;100.00
63190;BME280;49286;44.460;26.114;2023-12-20T08:05:40;100316.38;;;3.00;100.00
63190;BME280;49286;44.460;26.114;2023-12-20T08:08:06;100400.88;;;3.53;100.00
63190;BME280;49286;44.460;26.114;2023-12-20T08:10:32;100413.13;;;3.91;100.00
63190;BME280;49286;44.460;26.114;2023-12-20T08:12:57;100396.81;;;3.93;100.00
63190;BME280;49286;44.460;26.114;2023-12-20T08:15:23;100311.66;;;3.47;100.00
63190;BME280;49286;44.460;26.114;2023-12-20T08:17:49;100364.97;;;4.00;100.00
63190;BME280;49286;44.460;26.114;2023-12-20T08:20:16;100305.25;;;3.67;100.00
63190;BME280;49286;44.460;26.114;2023-12-20T08:22:42;100229.34;;;3.41;100.00
63190;BME280;49286;44.460;26.114;2023-12-20T08:25:08;100344.78;;;4.25;100.00
63190;BME280;49286;44.460;26.114;2023-12-20T08:27:38;100352.91;;;4.39;100.00
63190;BME280;49286;44.460;26.114;2023-12-20T08:30:04;100383.19;;;4.73;100.00
63190;BME280;49286;44.460;26.114;2023-12-20T08:32:31;100371.97;;;4.76;100.00
63190;BME280;49286;44.460;26.114;2023-12-20T08:34:57;100370.59;;;4.92;100.00
63190;BME280;49286;44.460;26.114;2023-12-20T08:37:22;100398.16;;;5.23;100.00
63190;BME280;49286;44.460;26.114;2023-12-20T08:39:48;100388.94;;;5.39;100.00
63190;BME280;49286;44.460;26.114;2023-12-20T08:42:14;100385.00;;;5.58;100.00
63190;BME280;49286;44.460;26.114;2023-12-20T08:44:39;100302.78;;;5.23;100.00
63190;BME280;49286;44.460;26.114;2023-12-20T08:47:05;100373.19;;;5.77;100.00
63190;BME280;49286;44.460;26.114;2023-12-20T08:49:30;100243.63;;;5.15;100.00
63190;BME280;49286;44.460;26.114;2023-12-20T08:51:56;100355.03;;;5.80;100.00
63190;BME280;49286;44.460;26.114;2023-12-20T08:54:21;100368.53;;;6.04;100.00
63190;BME280;49286;44.460;26.114;2023-12-20T08:56:47;100344.84;;;5.93;100.00
63190;BME280;49286;44.460;26.114;2023-12-20T08:59:12;100316.38;;;6.01;100.00
63190;BME280;49286;44.460;26.114;2023-12-20T09:01:38;100238.66;;;5.74;100.00
63190;BME280;49286;44.460;26.114;2023-12-20T09:04:04;100279.97;;;6.04;100.00
63190;BME280;49286;44.460;26.114;2023-12-20T09:06:29;100163.63;;;5.50;100.00
63190;BME280;49286;44.460;26.114;2023-12-20T09:08:55;100233.78;;;5.94;100.00
63190;BME280;49286;44.460;26.114;2023-12-20T09:11:21;100237.59;;;5.63;100.00
63190;BME280;49286;44.460;26.114;2023-12-20T09:13:47;100293.59;;;6.43;100.00
63190;BME280;49286;44.460;26.114;2023-12-20T09:16:13;100201.69;;;5.97;100.00
63190;BME280;49286;44.460;26.114;2023-12-20T09:18:41;100238.06;;;6.47;100.00
63190;BME280;49286;44.460;26.114;2023-12-20T09:21:06;100286.44;;;6.92;100.00
63190;BME280;49286;44.460;26.114;2023-12-20T09:23:33;100206.78;;;6.47;100.00
63190;BME280;49286;44.460;26.114;2023-12-20T09:25:58;100245.50;;;6.88;100.00
63190;BME280;49286;44.460;26.114;2023-12-20T09:28:25;100231.47;;;6.75;100.00
63190;BME280;49286;44.460;26.114;2023-12-20T09:30:51;100181.66;;;6.53;100.00
63190;BME280;49286;44.460;26.114;2023-12-20T09:33:17;100242.72;;;6.74;100.00
63190;BME280;49286;44.460;26.114;2023-12-20T09:35:43;100264.94;;;7.10;100.00
63190;BME280;49286;44.460;26.114;2023-12-20T09:38:09;100165.25;;;6.61;100.00
63190;BME280;49286;44.460;26.114;2023-12-20T09:40:35;100215.75;;;6.70;100.00
63190;BME280;49286;44.460;26.114;2023-12-20T09:43:04;100168.81;;;6.67;100.00
63190;BME280;49286;44.460;26.114;2023-12-20T09:45:33;100145.50;;;6.86;100.00
63190;BME280;49286;44.460;26.114;2023-12-20T09:48:00;100237.47;;;7.46;100.00
63190;BME280;49286;44.460;26.114;2023-12-20T09:50:25;100230.34;;;7.32;100.00
63190;BME280;49286;44.460;26.114;2023-12-20T09:52:53;100160.66;;;7.19;100.00
63190;BME280;49286;44.460;26.114;2023-12-20T09:55:19;100192.19;;;7.44;100.00
63190;BME280;49286;44.460;26.114;2023-12-20T09:57:46;100226.28;;;7.60;100.00
63190;BME280;49286;44.460;26.114;2023-12-20T10:00:14;100133.69;;;7.20;100.00
63190;BME280;49286;44.460;26.114;2023-12-20T10:02:53;100194.09;;;7.61;100.00
63190;BME280;49286;44.460;26.114;2023-12-20T10:05:26;100206.19;;;7.53;100.00
63190;BME280;49286;44.460;26.114;2023-12-20T10:07:52;100108.09;;;6.81;100.00
63190;BME280;49286;44.460;26.114;2023-12-20T10:10:18;100200.97;;;7.52;100.00
63190;BME280;49286;44.460;26.114;2023-12-20T10:13:03;100193.06;;;7.44;100.00
63190;BME280;49286;44.460;26.114;2023-12-20T10:15:29;100131.88;;;7.10;100.00
63190;BME280;49286;44.460;26.114;2023-12-20T10:17:57;100187.66;;;7.21;100.00
63190;BME280;49286;44.460;26.114;2023-12-20T10:20:22;100100.47;;;7.02;100.00
63190;BME280;49286;44.460;26.114;2023-12-20T10:22:49;100108.44;;;7.16;100.00
63190;BME280;49286;44.460;26.114;2023-12-20T10:25:15;100111.06;;;7.21;100.00
63190;BME280;49286;44.460;26.114;2023-12-20T10:27:41;100185.41;;;7.61;100.00
63190;BME280;49286;44.460;26.114;2023-12-20T10:30:07;100077.13;;;7.17;100.00
63190;BME280;49286;44.460;26.114;2023-12-20T10:32:33;100165.38;;;7.63;100.00
63190;BME280;49286;44.460;26.114;2023-12-20T10:34:59;100165.63;;;7.94;100.00
63190;BME280;49286;44.460;26.114;2023-12-20T10:37:24;100113.97;;;7.56;100.00
63190;BME280;49286;44.460;26.114;2023-12-20T10:39:53;100123.75;;;7.86;100.00
63190;BME280;49286;44.460;26.114;2023-12-20T10:42:30;100039.91;;;7.40;100.00
63190;BME280;49286;44.460;26.114;2023-12-20T10:44:56;100052.81;;;7.20;100.00
63190;BME280;49286;44.460;26.114;2023-12-20T10:47:22;100035.59;;;7.48;100.00
63190;BME280;49286;44.460;26.114;2023-12-20T10:49:48;100056.69;;;7.83;100.00
63190;BME280;49286;44.460;26.114;2023-12-20T10:52:17;100133.34;;;7.89;100.00
63190;BME280;49286;44.460;26.114;2023-12-20T10:54:45;100059.22;;;7.67;100.00
63190;BME280;49286;44.460;26.114;2023-12-20T10:57:13;99957.25;;;7.40;100.00
63190;BME280;49286;44.460;26.114;2023-12-20T10:59:39;100125.00;;;8.53;100.00
63190;BME280;49286;44.460;26.114;2023-12-20T11:02:05;100122.34;;;8.45;100.00
63190;BME280;49286;44.460;26.114;2023-12-20T11:04:53;100113.53;;;8.31;100.00
63190;BME280;49286;44.460;26.114;2023-12-20T11:07:29;100041.16;;;8.16;100.00
63190;BME280;49286;44.460;26.114;2023-12-20T11:10:00;100014.06;;;7.89;100.00
63190;BME280;49286;44.460;26.114;2023-12-20T11:12:37;100097.13;;;8.55;100.00
63190;BME280;49286;44.460;26.114;2023-12-20T11:15:06;100036.84;;;8.33;100.00
63190;BME280;49286;44.460;26.114;2023-12-20T11:17:32;100097.16;;;8.76;100.00
63190;BME280;49286;44.460;26.114;2023-12-20T11:22:33;99994.19;;;8.27;100.00
63190;BME280;49286;44.460;26.114;2023-12-20T11:27:30;99925.25;;;7.88;100.00
63190;BME280;49286;44.460;26.114;2023-12-20T11:29:57;100011.66;;;8.49;100.00
63190;BME280;49286;44.460;26.114;2023-12-20T11:37:37;100064.94;;;9.16;100.00
63190;BME280;49286;44.460;26.114;2023-12-20T11:40:05;100061.44;;;9.17;100.00
63190;BME280;49286;44.460;26.114;2023-12-20T11:42:51;99983.78;;;8.63;100.00
63190;BME280;49286;44.460;26.114;2023-12-20T11:45:19;100041.38;;;9.09;100.00
63190;BME280;49286;44.460;26.114;2023-12-20T11:47:48;99954.16;;;8.66;100.00
63190;BME280;49286;44.460;26.114;2023-12-20T11:50:21;100016.09;;;9.12;100.00
63190;BME280;49286;44.460;26.114;2023-12-20T11:52:48;99938.47;;;8.74;100.00
63190;BME280;49286;44.460;26.114;2023-12-20T11:55:14;100007.34;;;9.08;100.00
63190;BME280;49286;44.460;26.114;2023-12-20T11:57:40;100027.44;;;9.09;100.00
63190;BME280;49286;44.460;26.114;2023-12-20T12:00:06;99928.88;;;8.53;100.00
63190;BME280;49286;44.460;26.114;2023-12-20T12:02:32;100013.47;;;9.02;100.00
63190;BME280;49286;44.460;26.114;2023-12-20T12:04:59;99985.56;;;8.92;100.00
63190;BME280;49286;44.460;26.114;2023-12-20T12:07:25;100014.34;;;9.04;100.00
63190;BME280;49286;44.460;26.114;2023-12-20T12:09:50;99916.66;;;8.42;100.00
63190;BME280;49286;44.460;26.114;2023-12-20T12:12:19;100011.72;;;9.04;100.00
63190;BME280;49286;44.460;26.114;2023-12-20T12:14:45;100010.84;;;8.93;100.00
63190;BME280;49286;44.460;26.114;2023-12-20T12:17:12;99942.84;;;8.50;100.00
63190;BME280;49286;44.460;26.114;2023-12-20T12:19:39;99928.81;;;8.28;100.00
63190;BME280;49286;44.460;26.114;2023-12-20T12:24:47;99976.81;;;8.53;100.00
63190;BME280;49286;44.460;26.114;2023-12-20T12:27:13;99998.59;;;8.54;100.00
63190;BME280;49286;44.460;26.114;2023-12-20T12:29:39;99981.13;;;8.40;100.00
63190;BME280;49286;44.460;26.114;2023-12-20T12:32:09;99987.28;;;8.45;100.00
63190;BME280;49286;44.460;26.114;2023-12-20T12:34:36;99992.50;;;8.58;100.00
63190;BME280;49286;44.460;26.114;2023-12-20T12:37:03;99975.09;;;8.48;100.00
63190;BME280;49286;44.460;26.114;2023-12-20T12:39:29;99974.09;;;8.10;100.00
63190;BME280;49286;44.460;26.114;2023-12-20T12:41:55;99963.66;;;8.15;100.00
63190;BME280;49286;44.460;26.114;2023-12-20T12:44:22;99882.53;;;7.69;100.00
63190;BME280;49286;44.460;26.114;2023-12-20T12:46:49;99958.34;;;7.93;100.00
63190;BME280;49286;44.460;26.114;2023-12-20T12:49:19;99962.69;;;7.91;100.00